createdAt,value
2022-11-22T00:00:05.703Z,6.20
2022-11-22T00:02:16.047Z,5.60
2022-11-22T00:04:24.556Z,3.87
2022-11-22T00:06:33.605Z,6.60
2022-11-22T00:08:42.314Z,4.13
2022-11-22T00:10:51.523Z,3.57
2022-11-22T00:13:00.566Z,4.70
2022-11-22T00:15:11.412Z,4.43
2022-11-22T00:17:21.535Z,6.97
2022-11-22T00:19:30.384Z,4.27
2022-11-22T00:21:39.412Z,4.67
2022-11-22T00:23:48.704Z,4.30
2022-11-22T00:25:57.173Z,5.00
2022-11-22T00:28:06.320Z,5.80
2022-11-22T00:30:14.739Z,4.50
2022-11-22T00:32:24.736Z,3.97
2022-11-22T00:34:33.064Z,3.53
2022-11-22T00:36:45.580Z,3.97
2022-11-22T00:38:54.644Z,3.87
2022-11-22T00:41:03.208Z,5.37
2022-11-22T00:43:11.789Z,5.43
2022-11-22T00:45:20.429Z,3.53
2022-11-22T00:47:30.617Z,3.30
2022-11-22T00:49:39.614Z,6.63
2022-11-22T00:51:48.822Z,2.53
2022-11-22T00:53:57.348Z,3.67
2022-11-22T00:56:06.287Z,3.37
2022-11-22T00:58:15.244Z,4.30
2022-11-22T01:00:24.522Z,6.20
2022-11-22T01:02:34.496Z,2.40
2022-11-22T01:04:42.973Z,3.67
2022-11-22T01:06:51.496Z,3.43
2022-11-22T01:09:00.215Z,5.40
2022-11-22T01:11:09.527Z,5.10
2022-11-22T01:13:18.161Z,4.67
2022-11-22T01:15:27.045Z,3.67
2022-11-22T01:17:36.827Z,5.43
2022-11-22T01:19:45.462Z,4.03
2022-11-22T01:21:54.314Z,6.17
2022-11-22T01:24:03.186Z,3.80
2022-11-22T01:26:12.111Z,3.70
2022-11-22T01:28:20.851Z,4.27
2022-11-22T01:30:29.737Z,3.70
2022-11-22T01:32:40.118Z,4.57
2022-11-22T01:34:48.820Z,4.00
2022-11-22T01:36:57.301Z,3.83
2022-11-22T01:39:05.832Z,4.00
2022-11-22T01:41:14.795Z,3.67
2022-11-22T01:43:24.871Z,4.77
2022-11-22T01:45:46.649Z,4.60
2022-11-22T01:47:58.103Z,4.93
2022-11-22T01:50:08.807Z,4.67
2022-11-22T01:52:20.220Z,5.57
2022-11-22T01:54:34.320Z,5.37
2022-11-22T01:56:46.257Z,4.77
2022-11-22T01:58:58.261Z,8.03
2022-11-22T02:01:07.081Z,5.57
2022-11-22T02:03:19.425Z,4.90
2022-11-22T02:05:31.353Z,3.60
2022-11-22T02:07:44.537Z,4.77
2022-11-22T02:09:54.748Z,5.70
2022-11-22T02:12:05.739Z,6.30
2022-11-22T02:14:14.840Z,5.57
2022-11-22T02:16:24.507Z,5.47
2022-11-22T02:18:36.838Z,5.77
2022-11-22T02:20:46.390Z,5.70
2022-11-22T02:23:01.909Z,5.37
2022-11-22T02:25:19.239Z,5.30
2022-11-22T02:27:29.661Z,6.87
2022-11-22T02:29:38.809Z,4.57
2022-11-22T02:31:49.314Z,4.87
2022-11-22T02:34:01.593Z,4.43
2022-11-22T02:36:12.826Z,6.03
2022-11-22T02:38:25.663Z,5.80
2022-11-22T02:40:38.232Z,3.90
2022-11-22T02:42:51.899Z,5.10
2022-11-22T02:45:00.839Z,7.17
2022-11-22T02:47:09.419Z,5.60
2022-11-22T02:49:20.094Z,4.87
2022-11-22T02:51:28.991Z,5.73
2022-11-22T02:53:38.315Z,5.70
2022-11-22T02:55:47.299Z,5.90
2022-11-22T02:57:57.831Z,4.97
2022-11-22T03:00:08.064Z,4.20
2022-11-22T03:02:17.175Z,3.80
2022-11-22T03:04:28.701Z,4.33
2022-11-22T03:06:37.798Z,4.00
2022-11-22T03:08:54.664Z,6.07
2022-11-22T03:11:05.370Z,3.27
2022-11-22T03:13:15.186Z,6.80
2022-11-22T03:15:24.639Z,5.43
2022-11-22T03:17:33.196Z,4.97
2022-11-22T03:19:41.907Z,5.50
2022-11-22T03:21:51.648Z,5.13
2022-11-22T03:24:00.623Z,6.57
2022-11-22T03:26:10.740Z,4.80
2022-11-22T03:28:21.056Z,5.10
2022-11-22T03:30:29.847Z,5.17
2022-11-22T03:32:38.597Z,4.23
2022-11-22T03:34:47.760Z,6.07
2022-11-22T03:36:56.625Z,4.80
2022-11-22T03:39:05.272Z,3.63
2022-11-22T03:41:14.095Z,5.20
2022-11-22T03:43:24.934Z,4.10
2022-11-22T03:45:33.410Z,3.77
2022-11-22T03:47:42.290Z,4.30
2022-11-22T03:49:51.168Z,3.87
2022-11-22T03:52:00.358Z,6.03
2022-11-22T03:54:08.749Z,4.30
2022-11-22T03:56:17.460Z,4.17
2022-11-22T03:58:27.992Z,5.90
2022-11-22T04:00:37.207Z,5.97
2022-11-22T04:02:46.108Z,3.77
2022-11-22T04:04:54.994Z,2.60
2022-11-22T04:07:03.624Z,4.27
2022-11-22T04:09:12.900Z,6.63
2022-11-22T04:11:22.042Z,4.93
2022-11-22T04:13:46.124Z,6.17
2022-11-22T04:15:55.142Z,3.77
2022-11-22T04:18:03.687Z,3.97
2022-11-22T04:20:32.905Z,3.60
2022-11-22T04:22:41.683Z,4.07
2022-11-22T04:25:19.155Z,4.93
2022-11-22T04:27:27.740Z,2.37
2022-11-22T04:29:38.482Z,6.10
2022-11-22T04:32:05.085Z,5.37
2022-11-22T04:34:13.873Z,5.13
2022-11-22T04:36:22.454Z,6.07
2022-11-22T04:38:31.278Z,4.77
2022-11-22T04:40:40.260Z,5.53
2022-11-22T04:43:20.768Z,4.93
2022-11-22T04:45:31.078Z,5.83
2022-11-22T04:47:59.441Z,5.73
2022-11-22T04:50:30.693Z,3.13
2022-11-22T04:52:56.219Z,4.23
2022-11-22T04:55:05.683Z,4.27
2022-11-22T04:57:14.663Z,6.00
2022-11-22T04:59:23.413Z,6.23
2022-11-22T05:01:33.289Z,6.97
2022-11-22T05:03:42.248Z,5.50
2022-11-22T05:05:52.258Z,4.63
2022-11-22T05:08:01.090Z,5.67
2022-11-22T05:10:12.137Z,5.87
2022-11-22T05:12:21.208Z,5.00
2022-11-22T05:14:29.567Z,5.30
2022-11-22T05:16:39.870Z,5.87
2022-11-22T05:18:59.713Z,5.10
2022-11-22T05:21:09.706Z,4.63
2022-11-22T05:23:36.284Z,4.73
2022-11-22T05:25:44.591Z,4.27
2022-11-22T05:27:55.965Z,6.20
2022-11-22T05:30:05.177Z,5.10
2022-11-22T05:32:15.176Z,5.37
2022-11-22T05:34:23.991Z,6.33
2022-11-22T05:36:34.667Z,4.93
2022-11-22T05:38:43.396Z,6.30
2022-11-22T05:40:51.970Z,5.53
2022-11-22T05:43:01.311Z,4.80
2022-11-22T05:45:10.944Z,5.87
2022-11-22T05:47:21.711Z,4.27
2022-11-22T05:49:30.788Z,4.63
2022-11-22T05:51:39.506Z,5.67
2022-11-22T05:53:49.034Z,5.30
2022-11-22T05:55:57.680Z,6.27
2022-11-22T05:58:06.635Z,6.43
2022-11-22T06:00:15.737Z,4.93
2022-11-22T06:02:26.150Z,5.80
2022-11-22T06:04:35.581Z,5.73
2022-11-22T06:06:44.671Z,5.93
2022-11-22T06:08:53.129Z,7.40
2022-11-22T06:11:07.026Z,5.43
2022-11-22T06:13:15.548Z,6.20
2022-11-22T06:15:24.355Z,6.43
2022-11-22T06:17:34.755Z,5.87
2022-11-22T06:19:43.704Z,5.47
2022-11-22T06:21:52.579Z,6.90
2022-11-22T06:24:01.332Z,5.37
2022-11-22T06:26:12.159Z,8.23
2022-11-22T06:28:20.728Z,6.40
2022-11-22T06:30:29.358Z,6.47
2022-11-22T06:32:39.721Z,6.40
2022-11-22T06:34:48.447Z,6.63
2022-11-22T06:36:56.868Z,6.30
2022-11-22T06:39:05.741Z,7.57
2022-11-22T06:41:15.559Z,8.00
2022-11-22T06:43:24.214Z,7.13
2022-11-22T06:45:32.786Z,7.43
2022-11-22T06:47:43.393Z,7.43
2022-11-22T06:49:52.425Z,8.40
2022-11-22T06:52:01.267Z,6.30
2022-11-22T06:54:13.257Z,6.30
2022-11-22T06:56:23.490Z,5.87
2022-11-22T06:58:32.727Z,7.20
2022-11-22T07:00:41.779Z,7.60
2022-11-22T07:02:51.983Z,6.70
2022-11-22T07:05:24.464Z,7.07
2022-11-22T07:07:29.472Z,7.40
2022-11-22T07:09:38.879Z,6.70
2022-11-22T07:11:47.684Z,7.80
2022-11-22T07:14:01.903Z,7.40
2022-11-22T07:16:18.103Z,7.90
2022-11-22T07:18:28.890Z,8.17
2022-11-22T07:20:38.032Z,10.37
2022-11-22T07:22:49.842Z,9.90
2022-11-22T07:24:58.591Z,11.43
2022-11-22T07:27:07.059Z,8.07
2022-11-22T07:29:15.848Z,9.00
2022-11-22T07:31:24.309Z,7.60
2022-11-22T07:33:34.711Z,11.07
2022-11-22T07:35:43.333Z,9.13
2022-11-22T07:37:51.892Z,11.40
2022-11-22T07:40:00.701Z,9.40
2022-11-22T07:42:09.312Z,9.67
2022-11-22T07:44:18.345Z,10.00
2022-11-22T07:46:31.513Z,9.90
2022-11-22T07:48:42.667Z,10.47
2022-11-22T07:50:51.301Z,11.80
2022-11-22T07:53:00.448Z,11.03
2022-11-22T07:55:14.121Z,9.77
2022-11-22T07:57:23.198Z,10.07
2022-11-22T07:59:32.128Z,8.63
2022-11-22T08:01:41.099Z,12.27
2022-11-22T08:03:50.980Z,8.90
2022-11-22T08:06:01.796Z,9.63
2022-11-22T08:08:10.623Z,11.40
2022-11-22T08:10:19.803Z,9.37
2022-11-22T08:12:28.585Z,9.73
2022-11-22T08:14:36.974Z,10.30
2022-11-22T08:16:45.343Z,10.03
2022-11-22T08:18:55.516Z,8.37
2022-11-22T08:21:08.334Z,8.90
2022-11-22T08:23:16.598Z,9.83
2022-11-22T08:25:25.032Z,11.17
2022-11-22T08:27:33.387Z,9.60
2022-11-22T08:29:42.409Z,10.87
2022-11-22T08:31:51.692Z,9.97
2022-11-22T08:34:02.662Z,9.73
2022-11-22T08:36:11.399Z,9.37
2022-11-22T08:38:19.854Z,8.87
2022-11-22T08:40:28.421Z,10.70
2022-11-22T08:42:36.927Z,11.30
2022-11-22T08:44:45.705Z,9.60
2022-11-22T08:46:54.166Z,10.17
2022-11-22T08:49:06.683Z,7.53
2022-11-22T08:51:16.628Z,9.83
2022-11-22T08:53:25.999Z,9.10
2022-11-22T08:55:35.008Z,8.83
2022-11-22T08:57:43.811Z,6.80
2022-11-22T08:59:52.449Z,10.27
2022-11-22T09:02:01.450Z,9.10
2022-11-22T09:04:12.758Z,8.00
2022-11-22T09:08:58.614Z,7.90
2022-11-22T09:11:19.402Z,9.17
2022-11-22T09:13:28.409Z,8.93
2022-11-22T09:15:36.936Z,7.03
2022-11-22T09:17:46.374Z,8.83
2022-11-22T09:19:56.543Z,8.73
2022-11-22T09:22:05.563Z,8.37
2022-11-22T09:24:14.357Z,8.27
2022-11-22T09:26:25.217Z,8.63
2022-11-22T09:28:34.312Z,8.13
2022-11-22T09:30:42.860Z,6.73
2022-11-22T09:32:51.965Z,10.00
2022-11-22T09:35:02.408Z,8.63
2022-11-22T09:37:11.518Z,8.70
2022-11-22T09:39:20.471Z,8.87
2022-11-22T09:42:12.699Z,7.63
2022-11-22T09:44:31.589Z,6.67
2022-11-22T09:46:47.698Z,7.97
2022-11-22T09:49:18.204Z,6.70
2022-11-22T09:51:36.424Z,7.93
2022-11-22T09:53:51.091Z,6.40
2022-11-22T09:56:04.581Z,8.33
2022-11-22T09:58:25.702Z,5.93
2022-11-22T10:00:34.577Z,7.47
2022-11-22T10:02:59.925Z,5.73
2022-11-22T10:05:19.335Z,6.80
2022-11-22T10:07:36.165Z,7.23
2022-11-22T10:09:52.367Z,6.70
2022-11-22T10:12:04.219Z,7.33
2022-11-22T10:14:26.191Z,7.17
2022-11-22T10:16:40.578Z,9.03
2022-11-22T10:18:57.971Z,6.57
2022-11-22T10:21:07.395Z,5.83
2022-11-22T10:23:21.371Z,7.77
2022-11-22T10:25:40.366Z,7.03
2022-11-22T10:27:57.672Z,6.90
2022-11-22T10:30:16.214Z,7.30
2022-11-22T10:32:30.184Z,8.30
2022-11-22T10:34:54.061Z,10.57
2022-11-22T10:37:15.063Z,8.63
2022-11-22T10:39:48.427Z,6.03
2022-11-22T10:42:17.371Z,9.27
2022-11-22T10:44:36.939Z,5.70
2022-11-22T10:46:56.720Z,7.03
2022-11-22T10:49:19.126Z,6.87
2022-11-22T10:51:34.104Z,6.23
2022-11-22T10:54:03.159Z,6.83
2022-11-22T10:56:20.084Z,6.27
2022-11-22T10:58:39.470Z,7.27
2022-11-22T11:00:53.413Z,7.50
2022-11-22T11:03:15.746Z,7.87
2022-11-22T11:05:31.539Z,7.60
2022-11-22T11:07:44.145Z,9.47
2022-11-22T11:10:11.299Z,6.47
2022-11-22T11:12:27.092Z,6.93
2022-11-22T11:14:41.830Z,6.70
2022-11-22T11:16:51.198Z,6.90
2022-11-22T11:19:13.048Z,6.43
2022-11-22T11:21:21.968Z,6.60
2022-11-22T11:23:30.459Z,5.80
2022-11-22T11:25:42.624Z,6.63
2022-11-22T11:27:53.044Z,6.10
2022-11-22T11:30:03.903Z,6.73
2022-11-22T11:32:14.782Z,4.90
2022-11-22T11:34:27.886Z,5.63
2022-11-22T11:36:39.663Z,5.03
2022-11-22T11:38:55.341Z,6.93
2022-11-22T11:41:23.749Z,4.73
2022-11-22T11:43:34.124Z,6.00
2022-11-22T11:45:43.077Z,6.47
2022-11-22T11:47:51.834Z,6.70
2022-11-22T11:50:00.257Z,4.73
2022-11-22T11:52:15.406Z,5.47
2022-11-22T11:54:28.838Z,5.83
2022-11-22T11:56:46.932Z,6.77
2022-11-22T11:58:59.583Z,5.37
2022-11-22T12:01:15.469Z,5.13
2022-11-22T12:03:26.728Z,6.77
2022-11-22T12:05:36.859Z,6.20
2022-11-22T12:07:48.110Z,5.90
2022-11-22T12:09:57.315Z,5.50
2022-11-22T12:12:32.508Z,6.90
2022-11-22T12:15:09.749Z,5.80
2022-11-22T12:17:27.775Z,6.30
2022-11-22T12:19:51.701Z,6.03
2022-11-22T12:22:05.240Z,5.40
2022-11-22T12:24:45.307Z,7.33
2022-11-22T12:26:48.965Z,6.07
2022-11-22T12:28:59.556Z,6.23
2022-11-22T12:31:17.398Z,5.43
2022-11-22T12:33:32.686Z,7.00
2022-11-22T12:35:46.671Z,5.40
2022-11-22T12:37:58.148Z,7.43
2022-11-22T12:40:16.690Z,6.93
2022-11-22T12:42:32.022Z,6.63
2022-11-22T12:44:44.920Z,7.63
2022-11-22T12:47:00.316Z,7.00
2022-11-22T12:49:16.712Z,5.50
2022-11-22T12:51:30.386Z,5.77
2022-11-22T12:53:43.829Z,6.43
2022-11-22T12:55:58.463Z,7.87
2022-11-22T12:58:18.560Z,7.13
2022-11-22T13:00:32.092Z,7.57
2022-11-22T13:02:48.830Z,6.87
2022-11-22T13:05:02.489Z,8.33
2022-11-22T13:07:18.267Z,9.13
2022-11-22T13:09:32.357Z,8.57
2022-11-22T13:11:47.007Z,9.43
2022-11-22T13:14:01.077Z,10.67
2022-11-22T13:16:12.553Z,8.73
2022-11-22T13:18:26.192Z,7.60
2022-11-22T13:20:42.934Z,7.63
2022-11-22T13:23:02.807Z,8.10
2022-11-22T13:25:43.071Z,7.47
2022-11-22T13:27:52.704Z,7.87
2022-11-22T13:30:03.628Z,7.83
2022-11-22T13:32:21.020Z,8.40
2022-11-22T13:34:32.342Z,7.60
2022-11-22T13:36:41.775Z,8.90
2022-11-22T13:38:51.104Z,8.77
2022-11-22T13:41:24.055Z,7.80
2022-11-22T13:43:54.504Z,8.37
2022-11-22T13:46:04.642Z,7.33
2022-11-22T13:48:13.777Z,7.97
2022-11-22T13:50:59.231Z,7.10
2022-11-22T13:53:27.996Z,7.43
2022-11-22T13:55:42.524Z,8.40
2022-11-22T13:57:51.936Z,8.33
2022-11-22T14:00:49.408Z,7.03
2022-11-22T14:03:29.626Z,7.50
2022-11-22T14:05:42.244Z,7.63
2022-11-22T14:07:53.068Z,9.37
2022-11-22T14:10:22.021Z,8.57
2022-11-22T14:12:57.287Z,9.57
2022-11-22T14:15:24.421Z,9.40
2022-11-22T14:17:42.238Z,6.90
2022-11-22T14:20:09.182Z,8.80
2022-11-22T14:22:29.253Z,10.93
2022-11-22T14:24:50.865Z,7.67
2022-11-22T14:27:08.830Z,8.90
2022-11-22T14:29:54.930Z,8.07
2022-11-22T14:32:05.853Z,6.90
2022-11-22T14:34:23.920Z,7.80
2022-11-22T14:36:33.159Z,8.13
2022-11-22T14:38:42.675Z,9.70
2022-11-22T14:40:51.470Z,8.30
2022-11-22T14:43:17.918Z,8.43
2022-11-22T14:45:33.485Z,8.33
2022-11-22T14:47:46.423Z,7.53
2022-11-22T14:49:57.302Z,8.83
2022-11-22T14:52:16.588Z,7.70
2022-11-22T14:54:30.787Z,8.20
2022-11-22T14:56:39.807Z,8.80
2022-11-22T14:59:06.990Z,19.50
2022-11-22T15:01:52.611Z,18.43
2022-11-22T15:09:16.121Z,6.53
2022-11-22T15:09:19.644Z,17.93
2022-11-22T15:10:29.391Z,12.93
2022-11-22T15:13:10.383Z,7.93
2022-11-22T15:57:13.831Z,4.33
2022-11-22T15:59:28.937Z,4.97
2022-11-22T16:01:44.696Z,5.47
2022-11-22T16:03:57.007Z,5.90
2022-11-22T16:06:12.332Z,6.63
2022-11-22T16:08:21.733Z,6.53
2022-11-22T16:10:37.897Z,4.93
2022-11-22T16:12:47.276Z,5.30
2022-11-22T16:14:56.457Z,5.87
2022-11-22T16:17:35.903Z,7.17
2022-11-22T16:19:46.775Z,6.07
2022-11-22T16:21:59.563Z,8.17
2022-11-22T16:24:18.487Z,7.47
2022-11-22T16:26:30.446Z,8.03
2022-11-22T16:28:40.395Z,9.00
2022-11-22T16:30:49.476Z,7.27
2022-11-22T16:32:59.076Z,5.43
2022-11-22T16:35:29.566Z,6.53
2022-11-22T16:37:43.532Z,6.13
2022-11-22T16:39:55.297Z,6.73
2022-11-22T16:42:04.660Z,8.30
2022-11-22T16:44:17.969Z,6.43
2022-11-22T16:46:27.227Z,7.07
2022-11-22T16:48:36.389Z,8.43
2022-11-22T16:50:48.382Z,7.70
2022-11-22T16:53:02.680Z,7.07
2022-11-22T16:55:17.147Z,9.73
2022-11-22T16:57:26.095Z,9.17
2022-11-22T16:59:35.219Z,7.57
2022-11-22T17:01:44.913Z,10.00
2022-11-22T17:03:57.325Z,7.33
2022-11-22T17:06:08.498Z,7.40
2022-11-22T17:08:19.789Z,8.63
2022-11-22T17:10:28.622Z,7.70
2022-11-22T17:12:37.790Z,7.30
2022-11-22T17:14:48.785Z,6.27
2022-11-22T17:16:58.456Z,6.50
2022-11-22T17:19:14.548Z,6.53
2022-11-22T17:21:38.200Z,5.80
2022-11-22T17:23:48.722Z,7.57
2022-11-22T17:25:58.248Z,8.60
2022-11-22T17:28:06.689Z,11.47
2022-11-22T17:30:17.746Z,10.90
2022-11-22T17:32:26.538Z,13.37
2022-11-22T17:34:35.455Z,10.57
2022-11-22T17:36:45.832Z,8.87
2022-11-22T17:38:54.937Z,6.37
2022-11-22T17:41:04.409Z,6.60
2022-11-22T17:43:13.789Z,7.40
2022-11-22T17:45:22.827Z,6.70
2022-11-22T17:47:32.638Z,8.60
2022-11-22T17:49:41.387Z,7.03
2022-11-22T17:51:51.732Z,7.37
2022-11-22T17:54:01.154Z,6.97
2022-11-22T17:56:11.729Z,23.57
2022-11-22T17:58:21.041Z,8.67
2022-11-22T18:00:30.489Z,8.17
2022-11-22T18:02:39.681Z,8.93
2022-11-22T18:04:48.820Z,10.43
2022-11-22T18:07:00.787Z,8.57
2022-11-22T18:09:09.552Z,9.50
2022-11-22T18:11:20.431Z,8.97
2022-11-22T18:13:30.280Z,8.80
2022-11-22T18:15:40.964Z,9.30
2022-11-22T18:17:50.172Z,9.43
2022-11-22T18:19:59.505Z,8.93
2022-11-22T18:22:09.545Z,9.53
2022-11-22T18:24:18.628Z,9.87
2022-11-22T18:26:43.430Z,8.97
2022-11-22T18:29:16.098Z,9.13
2022-11-22T18:31:21.611Z,9.00
2022-11-22T18:33:33.504Z,8.87
2022-11-22T18:35:55.892Z,9.00
2022-11-22T18:38:07.136Z,10.43
2022-11-22T18:40:16.612Z,12.90
2022-11-22T18:42:25.957Z,11.10
2022-11-22T18:44:35.139Z,15.60
2022-11-22T18:46:44.067Z,16.17
2022-11-22T18:48:52.579Z,14.67
2022-11-22T18:51:04.075Z,19.63
2022-11-22T18:53:14.659Z,16.03
2022-11-22T18:55:23.514Z,14.43
2022-11-22T18:57:32.866Z,12.93
2022-11-22T18:59:42.127Z,13.53
2022-11-22T19:01:51.758Z,12.83
2022-11-22T19:04:01.077Z,9.33
2022-11-22T19:06:12.942Z,7.03
2022-11-22T19:08:23.641Z,7.13
2022-11-22T19:10:32.641Z,8.87
2022-11-22T19:12:41.172Z,9.20
2022-11-22T19:14:51.609Z,10.37
2022-11-22T19:17:01.191Z,9.03
2022-11-22T19:19:13.894Z,11.00
2022-11-22T19:21:24.893Z,8.40
2022-11-22T19:23:36.588Z,8.53
2022-11-22T19:25:46.007Z,8.83
2022-11-22T19:27:54.831Z,6.93
2022-11-22T19:30:03.661Z,6.57
2022-11-22T19:32:13.042Z,6.13
2022-11-22T19:34:23.608Z,4.43
2022-11-22T19:36:34.631Z,6.20
2022-11-22T19:38:49.796Z,6.07
2022-11-22T19:41:00.189Z,8.20
2022-11-22T19:43:16.142Z,9.93
2022-11-22T19:45:26.113Z,6.27
2022-11-22T19:47:36.381Z,4.30
2022-11-22T19:49:45.519Z,4.70
2022-11-22T19:51:55.311Z,5.83
2022-11-22T19:54:08.016Z,6.33
2022-11-22T19:56:20.815Z,5.60
2022-11-22T19:58:29.555Z,6.00
2022-11-22T20:00:39.003Z,6.30
2022-11-22T20:02:48.202Z,7.27
2022-11-22T20:04:59.336Z,5.53
2022-11-22T20:07:09.750Z,4.63
2022-11-22T20:09:20.805Z,5.07
2022-11-22T20:11:30.008Z,5.57
2022-11-22T20:13:42.999Z,6.93
2022-11-22T20:15:51.964Z,5.90
2022-11-22T20:18:03.419Z,5.93
2022-11-22T20:20:12.894Z,5.87
2022-11-22T20:22:22.291Z,5.67
2022-11-22T20:24:33.540Z,4.37
2022-11-22T20:26:43.515Z,6.30
2022-11-22T20:28:58.050Z,4.67
2022-11-22T20:31:09.039Z,5.87
2022-11-22T20:33:17.786Z,7.60
2022-11-22T20:35:26.948Z,5.50
2022-11-22T20:37:36.443Z,6.33
2022-11-22T20:39:46.850Z,6.13
2022-11-22T20:42:25.990Z,6.47
2022-11-22T20:44:25.928Z,6.70
2022-11-22T20:46:38.534Z,5.50
2022-11-22T20:48:49.635Z,8.03
2022-11-22T20:50:58.553Z,9.10
2022-11-22T20:53:07.884Z,8.40
2022-11-22T20:55:20.849Z,8.87
2022-11-22T20:57:30.092Z,8.03
2022-11-22T20:59:39.705Z,7.27
2022-11-22T21:01:48.845Z,5.57
2022-11-22T21:03:58.293Z,7.47
2022-11-22T21:06:08.106Z,6.67
2022-11-22T21:08:17.179Z,6.60
2022-11-22T21:10:27.881Z,6.83
2022-11-22T21:12:36.826Z,6.67
2022-11-22T21:14:47.699Z,6.73
2022-11-22T21:17:07.186Z,7.03
2022-11-22T21:19:25.301Z,8.77
2022-11-22T21:21:36.686Z,6.33
2022-11-22T21:23:46.354Z,7.13
2022-11-22T21:25:56.889Z,6.70
2022-11-22T21:28:06.152Z,8.07
2022-11-22T21:30:16.102Z,7.50
2022-11-22T21:32:24.715Z,8.37
2022-11-22T21:34:33.823Z,6.77
2022-11-22T21:36:42.829Z,7.40
2022-11-22T21:38:51.433Z,4.60
2022-11-22T21:41:31.799Z,5.63
2022-11-22T21:43:32.695Z,7.10
2022-11-22T21:45:41.169Z,3.50
2022-11-22T21:47:50.486Z,5.13
2022-11-22T21:50:00.130Z,4.60
2022-11-22T21:52:09.547Z,5.37
2022-11-22T21:54:18.551Z,4.97
2022-11-22T21:56:30.240Z,3.90
2022-11-22T21:58:39.077Z,4.60
2022-11-22T22:00:49.227Z,3.80
2022-11-22T22:02:58.090Z,4.93
2022-11-22T22:05:07.166Z,5.20
2022-11-22T22:07:36.433Z,4.00
2022-11-22T22:09:46.568Z,4.80
2022-11-22T22:11:57.169Z,4.40
2022-11-22T22:14:06.393Z,4.93
2022-11-22T22:16:19.479Z,4.20
2022-11-22T22:18:33.080Z,6.17
2022-11-22T22:20:42.630Z,5.47
2022-11-22T22:22:52.674Z,5.30
2022-11-22T22:25:03.407Z,5.17
2022-11-22T22:27:14.504Z,5.13
2022-11-22T22:29:23.580Z,4.43
2022-11-22T22:31:33.710Z,6.47
2022-11-22T22:33:43.688Z,4.67
2022-11-22T22:35:52.931Z,5.70
2022-11-22T22:38:03.721Z,4.60
2022-11-22T22:40:14.609Z,3.37
2022-11-22T22:42:26.655Z,3.33
2022-11-22T22:44:36.652Z,3.73
2022-11-22T22:46:45.735Z,5.17
2022-11-22T22:48:57.022Z,4.60
2022-11-22T22:51:08.062Z,3.67
2022-11-22T22:53:16.983Z,4.70
2022-11-22T22:55:25.964Z,6.00
2022-11-22T22:57:36.333Z,4.10
2022-11-22T22:59:45.707Z,3.93
2022-11-22T23:01:55.451Z,3.33
2022-11-22T23:04:05.083Z,3.50
2022-11-22T23:06:15.111Z,5.03
2022-11-22T23:08:23.573Z,3.33
2022-11-22T23:10:33.550Z,4.17
2022-11-22T23:12:44.226Z,3.73
2022-11-22T23:14:53.052Z,3.13
2022-11-22T23:17:01.832Z,3.00
2022-11-22T23:19:12.315Z,3.33
2022-11-22T23:21:21.071Z,3.30
2022-11-22T23:23:30.657Z,2.53
2022-11-22T23:25:39.860Z,2.83
2022-11-22T23:27:50.107Z,2.97
2022-11-22T23:29:59.356Z,5.17
2022-11-22T23:32:08.858Z,3.07
2022-11-22T23:34:18.023Z,2.70
2022-11-22T23:36:26.932Z,2.07
2022-11-22T23:38:36.681Z,3.80
2022-11-22T23:40:46.004Z,2.17
2022-11-22T23:42:59.408Z,2.70
2022-11-22T23:45:09.677Z,1.27
2022-11-22T23:47:18.615Z,2.17
2022-11-22T23:49:27.684Z,2.97
2022-11-22T23:51:37.893Z,3.33
2022-11-22T23:53:46.823Z,3.43
2022-11-22T23:55:55.873Z,4.13
2022-11-22T23:58:06.383Z,6.10
